»·PEaware :: SKY17 KTOA-KVNY

SKY17 :: KTOA-KVNY

FLIGHT INFORMATION

Flight Status: Arrived
Operator:
Sky High Charters
More flights by this operator :: More flights under this callsign
Pilot: Max H. (24278)
Aircraft: PILATUS PC-12 EAGLE
(PC12)
More flights by this aircraft type
Origin: KTOA Zamperini
United States
Destination: KVNY Van Nuys
United States
More flights between these airports :: More routes between these airports
Route: LAX170 LIMBO V64 SMO125 SMO SMO317 CANOG
File this flight plan on PilotEdge
Remarks:
Altitude:
(Current/Filed)
5,000ft
Speed:
(Current/Filed)
200kts
Departed: 16-Jun-19 04:01 PM
Arrived: 16-Jun-19 04:51 PM
Distance/Time
Traveled:
25nm/0:50
Distance/Time
To Go:
Arrived

Flight Plot

Page will automatically refresh every two minutes.

Flight plan parsing failed; only flown route is shown


Map Options




Map Legend


Flown Route
Filed Route
Departure Airport
Arrival Airport
Navaid (VOR, NDB)
Fix

Horizontal Profiles

Position Reports

Time Latitude Longitude Heading Altitude Ground
Speed
16-Jun-19 15:33 33.806170 -118.347681 92 101ft 0kts
16-Jun-19 15:34 33.806170 -118.347681 92 101ft 0kts
16-Jun-19 15:35 33.806170 -118.347681 92 101ft 0kts
16-Jun-19 15:36 33.806170 -118.347681 92 101ft 0kts
16-Jun-19 15:37 33.806170 -118.347681 92 101ft 0kts
16-Jun-19 15:38 33.806170 -118.347681 92 101ft 0kts
16-Jun-19 15:39 33.806170 -118.347681 92 101ft 0kts
16-Jun-19 15:40 33.806170 -118.347681 92 101ft 0kts
16-Jun-19 15:41 33.806170 -118.347681 92 101ft 0kts
16-Jun-19 15:42 33.806170 -118.347681 92 101ft 0kts
16-Jun-19 15:43 33.806170 -118.347681 92 101ft 0kts
16-Jun-19 15:44 33.806170 -118.347681 92 101ft 0kts
16-Jun-19 15:45 33.806170 -118.347681 92 101ft 0kts
16-Jun-19 15:46 33.806170 -118.347681 92 101ft 0kts
16-Jun-19 15:47 33.806170 -118.347681 92 101ft 0kts
16-Jun-19 15:48 33.806170 -118.347681 92 101ft 0kts
16-Jun-19 15:49 33.806170 -118.347681 92 101ft 0kts
16-Jun-19 15:50 33.806170 -118.347681 92 101ft 0kts
16-Jun-19 15:51 33.806170 -118.347681 92 101ft 0kts
16-Jun-19 15:52 33.806170 -118.347681 92 101ft 0kts
16-Jun-19 15:53 33.806170 -118.347681 92 101ft 0kts
16-Jun-19 15:54 33.806170 -118.347681 92 101ft 0kts
16-Jun-19 15:55 33.805838 -118.347156 44 101ft 10kts
16-Jun-19 15:56 33.803160 -118.342256 128 101ft 14kts
16-Jun-19 15:57 33.799647 -118.336950 128 101ft 24kts
16-Jun-19 15:58 33.799143 -118.333238 38 101ft 0kts
16-Jun-19 15:59 33.799536 -118.332984 353 101ft 12kts
16-Jun-19 16:00 33.812069 -118.352063 304 534ft 145kts
16-Jun-19 16:01 33.841539 -118.398758 305 1773ft 195kts
16-Jun-19 16:02 33.864638 -118.455808 237 3004ft 203kts
16-Jun-19 16:03 33.811810 -118.450498 180 4266ft 213kts
16-Jun-19 16:04 33.751102 -118.455265 183 5000ft 234kts
16-Jun-19 16:05 33.739307 -118.391993 47 5008ft 260kts
16-Jun-19 16:06 33.767068 -118.313352 84 5000ft 263kts
16-Jun-19 16:07 33.779295 -118.226555 59 4999ft 264kts
16-Jun-19 16:08 33.833817 -118.239146 288 5003ft 251kts
16-Jun-19 16:09 33.864412 -118.313704 320 5002ft 254kts
16-Jun-19 16:10 33.919965 -118.366347 318 4999ft 253kts
16-Jun-19 16:11 33.974705 -118.421341 317 4997ft 253kts
16-Jun-19 16:12 34.029317 -118.476986 317 4996ft 255kts
16-Jun-19 16:13 34.091731 -118.518422 333 4996ft 257kts
16-Jun-19 16:14 34.156560 -118.555708 333 4986ft 257kts
16-Jun-19 16:15 34.221516 -118.593116 334 4979ft 259kts
16-Jun-19 16:16 34.291839 -118.609951 352 4985ft 259kts
16-Jun-19 16:17 34.355491 -118.621358 352 4996ft 195kts
16-Jun-19 16:18 34.407648 -118.630943 351 5012ft 224kts
16-Jun-19 16:19 34.465156 -118.641090 352 5037ft 184kts
16-Jun-19 16:20 34.503411 -118.619247 71 5045ft 170kts
16-Jun-19 16:21 34.520274 -118.565991 73 5045ft 167kts
16-Jun-19 16:22 34.494637 -118.529766 166 5042ft 160kts
16-Jun-19 16:23 34.451330 -118.517676 166 5041ft 159kts
16-Jun-19 16:24 34.407859 -118.508704 175 5081ft 158kts
16-Jun-19 16:25 34.360307 -118.504507 174 4420ft 187kts
16-Jun-19 16:26 34.304605 -118.499265 174 3123ft 211kts
16-Jun-19 16:27 34.245056 -118.493721 174 1618ft 208kts
16-Jun-19 16:28 34.197221 -118.489183 174 1238ft 122kts
16-Jun-19 16:29 34.158718 -118.485651 176 2858ft 159kts
16-Jun-19 16:30 34.117393 -118.464777 156 4609ft 189kts
16-Jun-19 16:31 34.057701 -118.454498 182 4629ft 235kts
16-Jun-19 16:32 34.016039 -118.499545 273 4633ft 246kts
16-Jun-19 16:33 34.026239 -118.581618 277 4635ft 247kts
16-Jun-19 16:34 34.036746 -118.663899 276 4640ft 247kts
16-Jun-19 16:35 34.047236 -118.746316 278 4645ft 247kts
16-Jun-19 16:36 34.074375 -118.822172 304 4648ft 250kts
16-Jun-19 16:37 34.141130 -118.842404 351 4648ft 253kts
16-Jun-19 16:38 34.209958 -118.840167 43 4641ft 255kts
16-Jun-19 16:40 34.227947 -118.758551 81 4634ft 253kts
16-Jun-19 16:41 34.249869 -118.680463 27 4634ft 256kts
16-Jun-19 16:42 34.288969 -118.726795 262 4635ft 245kts
16-Jun-19 16:43 34.275254 -118.805435 218 4644ft 239kts
16-Jun-19 16:44 34.228754 -118.768095 112 4636ft 250kts
16-Jun-19 16:45 34.205303 -118.689116 105 4165ft 237kts
16-Jun-19 16:46 34.200995 -118.621759 93 3415ft 162kts
16-Jun-19 16:47 34.200240 -118.565188 92 2985ft 212kts
16-Jun-19 16:48 34.199476 -118.504138 99 2146ft 159kts
16-Jun-19 16:49 34.217967 -118.464094 351 2071ft 167kts
16-Jun-19 16:50 34.236993 -118.487615 206 1683ft 103kts
16-Jun-19 16:51 34.213072 -118.489429 175 806ft 31kts
16-Jun-19 16:52 34.210282 -118.488594 93 806ft 0kts
16-Jun-19 16:53 34.209982 -118.487518 108 806ft 14kts

Navigation Log

Ident Type
Flight plan parsing failed, navigation log unavailable